Time;durP1;ratioP1;P1;durP2;ratioP2;P2;SDS_P1;SDS_P2;PMS_P1;PMS_P2;Temp;Humidity;BMP_temperature;BMP_pressure;BME280_temperature;BME280_humidity;BME280_pressure;Samples;Min_cycle;Max_cycle;Signal;HPM_P1;HPM_P2
2023/10/29 00:02:24;;;;;;;7.88;2.03;;;12.00;99.90;;;;;;5033342;28;20230;-57
2023/10/29 00:04:53;;;;;;;6.68;2.35;;;12.00;99.90;;;;;;5033371;28;20643;-58
2023/10/29 00:07:20;;;;;;;9.65;3.00;;;12.00;99.90;;;;;;5032767;28;20727;-58
2023/10/29 00:09:48;;;;;;;3.22;1.83;;;12.00;99.90;;;;;;5033526;28;20289;-58
2023/10/29 00:12:16;;;;;;;4.95;1.88;;;11.90;99.90;;;;;;5031645;28;20236;-58
2023/10/29 00:14:45;;;;;;;6.20;1.48;;;11.90;99.90;;;;;;5032171;28;20206;-58
2023/10/29 00:17:14;;;;;;;5.00;1.95;;;11.90;99.90;;;;;;5033238;28;20231;-58
2023/10/29 00:19:42;;;;;;;4.50;1.73;;;11.90;99.90;;;;;;5033248;28;20298;-58
2023/10/29 00:22:10;;;;;;;4.45;2.00;;;11.90;99.90;;;;;;5032944;28;20314;-58
2023/10/29 00:24:38;;;;;;;6.75;1.30;;;12.00;99.90;;;;;;5033346;28;20700;-58
2023/10/29 00:27:06;;;;;;;6.68;1.40;;;11.90;99.90;;;;;;5055293;22;20351;-58
2023/10/29 00:29:34;;;;;;;4.72;1.48;;;12.00;99.90;;;;;;5052148;28;20284;-58
2023/10/29 00:32:03;;;;;;;2.13;1.40;;;12.00;99.90;;;;;;5052560;28;20206;-57
2023/10/29 00:34:31;;;;;;;9.27;1.30;;;12.00;99.90;;;;;;5052305;28;20206;-58
2023/10/29 00:36:59;;;;;;;5.30;1.73;;;12.00;99.90;;;;;;5052860;28;20316;-58
2023/10/29 00:39:27;;;;;;;5.38;1.48;;;12.00;99.90;;;;;;5053130;28;20256;-58
2023/10/29 00:41:55;;;;;;;5.65;1.65;;;12.00;99.90;;;;;;5051807;28;20249;-58
2023/10/29 00:44:23;;;;;;;4.93;1.42;;;12.10;99.90;;;;;;5051758;28;20936;-58
2023/10/29 00:46:50;;;;;;;7.68;1.63;;;12.10;99.90;;;;;;5052193;28;20279;-58
2023/10/29 00:49:20;;;;;;;2.92;1.10;;;12.10;99.90;;;;;;5050878;28;20271;-57
2023/10/29 00:51:48;;;;;;;3.17;1.42;;;12.10;99.90;;;;;;5051410;28;20287;-57
2023/10/29 00:54:15;;;;;;;2.65;0.90;;;12.10;99.90;;;;;;5052433;28;20682;-58
2023/10/29 00:56:42;;;;;;;2.08;0.98;;;12.10;99.90;;;;;;5051979;28;20681;-57
2023/10/29 00:59:11;;;;;;;5.55;1.25;;;12.10;99.90;;;;;;5051870;28;20213;-59
2023/10/29 01:01:39;;;;;;;3.50;1.10;;;12.20;99.90;;;;;;5050519;28;20579;-58
2023/10/29 01:04:08;;;;;;;3.92;1.35;;;12.20;99.90;;;;;;5052342;28;20320;-58
2023/10/29 01:06:38;;;;;;;3.80;1.10;;;12.20;99.90;;;;;;5051833;28;20230;-58
2023/10/29 01:09:06;;;;;;;4.25;1.27;;;12.20;99.90;;;;;;5051356;28;20205;-59
2023/10/29 01:11:34;;;;;;;3.95;0.98;;;12.30;99.90;;;;;;5052502;28;20234;-59
2023/10/29 01:14:02;;;;;;;4.20;0.90;;;12.20;99.90;;;;;;5053847;28;20590;-59
2023/10/29 01:16:30;;;;;;;3.15;1.30;;;12.20;99.90;;;;;;5050264;28;20758;-59
2023/10/29 01:18:58;;;;;;;9.68;1.60;;;12.20;99.90;;;;;;5051312;28;20439;-59
2023/10/29 01:21:27;;;;;;;3.92;1.20;;;12.20;99.90;;;;;;5051752;28;20259;-59
2023/10/29 01:23:57;;;;;;;2.42;1.30;;;12.20;99.90;;;;;;5050467;28;20279;-59
2023/10/29 01:26:25;;;;;;;1.77;1.10;;;12.20;99.90;;;;;;5051464;28;20233;-59
2023/10/29 01:28:53;;;;;;;5.97;1.20;;;12.20;99.90;;;;;;5051730;28;20217;-56
2023/10/29 01:31:20;;;;;;;2.22;0.98;;;12.20;99.90;;;;;;5051894;28;20241;-58
2023/10/29 01:33:48;;;;;;;3.30;1.17;;;12.20;99.90;;;;;;5051170;28;20198;-58
2023/10/29 01:36:16;;;;;;;6.28;1.10;;;12.20;99.90;;;;;;5051148;28;20208;-56
2023/10/29 01:38:44;;;;;;;6.13;1.05;;;12.20;99.90;;;;;;5051634;28;20703;-57
2023/10/29 01:41:13;;;;;;;2.75;1.23;;;12.20;99.90;;;;;;5051166;28;20276;-58
2023/10/29 01:43:41;;;;;;;3.83;1.20;;;12.20;99.90;;;;;;5051901;28;20320;-57
2023/10/29 01:46:09;;;;;;;2.97;1.55;;;12.20;99.90;;;;;;5051222;28;20292;-57
2023/10/29 01:48:37;;;;;;;3.08;1.42;;;12.20;99.90;;;;;;5051587;28;20206;-57
2023/10/29 01:51:06;;;;;;;3.20;1.25;;;12.20;99.90;;;;;;5042228;28;20213;-57
2023/10/29 01:53:34;;;;;;;2.60;1.25;;;12.20;99.90;;;;;;5051476;28;20248;-56
2023/10/29 01:56:01;;;;;;;7.72;1.17;;;12.10;99.90;;;;;;5050884;28;20214;-58
2023/10/29 01:58:31;;;;;;;5.85;1.35;;;12.10;99.90;;;;;;5051261;28;20234;-57
2023/10/29 02:00:59;;;;;;;3.33;1.23;;;12.10;99.90;;;;;;5051090;28;20234;-57
2023/10/29 02:03:27;;;;;;;4.53;1.27;;;12.10;99.90;;;;;;5050675;28;20706;-57
2023/10/29 02:05:55;;;;;;;4.40;0.95;;;12.10;99.90;;;;;;5050656;28;20209;-58
2023/10/29 02:08:23;;;;;;;1.20;1.10;;;12.10;99.90;;;;;;5051011;28;20321;-58
2023/10/29 02:10:51;;;;;;;3.05;0.95;;;12.10;99.90;;;;;;5050787;28;20248;-57
2023/10/29 02:13:19;;;;;;;3.22;1.00;;;12.10;99.90;;;;;;5049979;28;20742;-59
2023/10/29 02:15:49;;;;;;;2.53;0.85;;;12.10;99.90;;;;;;5049642;28;20762;-58
2023/10/29 02:18:17;;;;;;;4.15;1.38;;;12.00;99.90;;;;;;5051079;28;20249;-58
2023/10/29 02:20:45;;;;;;;5.10;0.90;;;12.10;99.90;;;;;;5050475;28;20632;-58
2023/10/29 02:23:15;;;;;;;3.38;1.08;;;12.10;99.90;;;;;;5051107;28;20194;-58
2023/10/29 02:25:42;;;;;;;4.05;0.93;;;12.10;99.90;;;;;;5051370;28;20190;-58
2023/10/29 02:28:10;;;;;;;1.98;0.98;;;12.10;99.90;;;;;;5049225;28;20776;-57
2023/10/29 02:30:38;;;;;;;1.77;0.93;;;12.10;99.90;;;;;;5052658;28;20288;-58
2023/10/29 02:33:06;;;;;;;8.27;1.20;;;12.10;99.90;;;;;;5055140;28;20202;-58
2023/10/29 02:35:34;;;;;;;1.70;0.80;;;12.10;99.90;;;;;;5048567;28;20231;-57
2023/10/29 02:38:02;;;;;;;4.72;1.17;;;12.20;99.90;;;;;;5054837;28;20233;-57
2023/10/29 02:40:31;;;;;;;3.50;1.10;;;12.20;99.90;;;;;;5054775;28;20289;-59
2023/10/29 02:42:59;;;;;;;6.45;1.10;;;12.20;99.90;;;;;;5054526;28;20241;-57
2023/10/29 02:45:27;;;;;;;4.55;1.33;;;12.30;99.90;;;;;;5054421;28;20221;-58
2023/10/29 02:47:55;;;;;;;2.67;1.10;;;12.30;99.90;;;;;;5054070;28;20367;-58
2023/10/29 02:50:23;;;;;;;3.95;1.10;;;12.30;99.90;;;;;;5055247;28;20208;-57
2023/10/29 02:52:51;;;;;;;1.65;1.05;;;12.30;99.90;;;;;;5054797;28;20663;-57
2023/10/29 02:55:19;;;;;;;3.22;1.17;;;12.30;99.90;;;;;;5054634;28;20293;-58
2023/10/29 02:57:48;;;;;;;3.33;1.30;;;12.30;99.90;;;;;;5054163;28;20262;-58
2023/10/29 03:00:17;;;;;;;4.00;1.00;;;12.30;99.90;;;;;;5054888;28;20642;-58
2023/10/29 03:02:45;;;;;;;4.85;1.30;;;12.30;99.90;;;;;;5054396;28;20297;-58
2023/10/29 03:05:13;;;;;;;7.50;1.15;;;12.20;99.90;;;;;;5054502;28;20275;-58
2023/10/29 03:07:41;;;;;;;4.50;1.42;;;12.20;99.90;;;;;;5054337;28;20309;-58
2023/10/29 03:10:09;;;;;;;2.63;1.30;;;12.20;99.90;;;;;;5054550;28;20678;-58
2023/10/29 03:12:37;;;;;;;4.57;1.90;;;12.20;99.90;;;;;;5053275;28;20218;-58
2023/10/29 03:15:07;;;;;;;1.20;1.10;;;12.30;99.90;;;;;;5052345;28;20277;-58
2023/10/29 03:17:35;;;;;;;1.13;0.85;;;12.30;99.90;;;;;;5054254;28;20253;-58
2023/10/29 03:20:04;;;;;;;1.95;1.38;;;12.40;99.90;;;;;;5053897;28;20202;-58
2023/10/29 03:22:32;;;;;;;2.60;0.98;;;12.40;99.90;;;;;;5054076;28;20244;-58
2023/10/29 03:25:00;;;;;;;4.03;1.50;;;12.40;99.90;;;;;;5053580;28;20221;-58
2023/10/29 03:27:28;;;;;;;2.20;1.27;;;12.40;99.90;;;;;;5053693;28;20229;-58
2023/10/29 03:29:56;;;;;;;4.55;1.17;;;12.40;99.90;;;;;;5054222;28;20204;-58
2023/10/29 03:32:25;;;;;;;4.05;1.08;;;12.40;99.90;;;;;;5054375;28;20198;-58
2023/10/29 03:34:53;;;;;;;4.00;0.95;;;12.40;99.90;;;;;;5053542;28;20198;-58
2023/10/29 03:37:21;;;;;;;4.05;1.27;;;12.40;99.90;;;;;;5053332;28;20222;-58
2023/10/29 03:39:49;;;;;;;4.70;0.98;;;12.40;99.90;;;;;;5053573;28;20297;-58
2023/10/29 03:42:17;;;;;;;2.38;1.10;;;12.40;99.90;;;;;;5052664;28;20784;-58
2023/10/29 03:44:45;;;;;;;2.65;1.25;;;12.40;99.90;;;;;;5052789;28;20715;-58
2023/10/29 03:47:13;;;;;;;2.97;1.52;;;12.40;99.90;;;;;;5053395;28;20596;-58
2023/10/29 03:49:44;;;;;;;5.63;1.40;;;12.30;99.90;;;;;;5053586;28;20230;-58
2023/10/29 03:52:12;;;;;;;2.28;1.17;;;12.30;99.90;;;;;;5044643;28;20212;-58
2023/10/29 03:54:40;;;;;;;5.03;1.35;;;12.30;99.90;;;;;;5053817;28;20683;-57
2023/10/29 03:57:10;;;;;;;1.58;1.23;;;12.30;99.90;;;;;;5053316;28;20217;-58
2023/10/29 03:59:38;;;;;;;4.80;1.13;;;12.30;99.90;;;;;;5053402;28;20228;-58
2023/10/29 04:02:06;;;;;;;4.63;1.27;;;12.30;99.90;;;;;;5053058;28;20226;-58
2023/10/29 04:04:34;;;;;;;2.80;1.20;;;12.30;99.90;;;;;;5053418;28;20582;-58
2023/10/29 04:07:03;;;;;;;2.72;1.60;;;12.30;99.90;;;;;;5053540;28;20257;-58
2023/10/29 04:09:31;;;;;;;5.07;1.55;;;12.30;99.90;;;;;;5053483;28;20722;-58
2023/10/29 04:11:59;;;;;;;3.53;1.58;;;12.30;99.90;;;;;;5052708;28;20255;-57
2023/10/29 04:14:27;;;;;;;6.43;1.60;;;12.30;99.90;;;;;;5053512;28;20205;-57
2023/10/29 04:16:55;;;;;;;2.40;1.00;;;12.30;99.90;;;;;;5052004;28;20218;-58
2023/10/29 04:19:23;;;;;;;3.58;1.30;;;12.30;99.90;;;;;;5053318;28;20742;-58
2023/10/29 04:21:51;;;;;;;2.15;1.25;;;12.20;99.90;;;;;;5052825;28;20745;-57
2023/10/29 04:24:20;;;;;;;1.70;1.17;;;12.20;99.90;;;;;;5047796;28;20201;-58
2023/10/29 04:26:48;;;;;;;1.60;1.50;;;12.20;99.90;;;;;;5051502;28;20317;-58
2023/10/29 04:29:16;;;;;;;3.17;1.40;;;12.20;99.90;;;;;;5053061;28;20213;-58
2023/10/29 04:31:44;;;;;;;5.60;1.30;;;12.20;99.90;;;;;;5052503;28;20218;-58
2023/10/29 04:34:13;;;;;;;2.38;1.10;;;12.20;99.90;;;;;;5053189;28;20281;-58
2023/10/29 04:36:42;;;;;;;8.18;1.20;;;12.20;99.90;;;;;;5052571;28;20253;-58
2023/10/29 04:39:10;;;;;;;1.10;1.00;;;12.20;99.90;;;;;;5051888;28;20332;-58
2023/10/29 04:41:39;;;;;;;1.42;0.98;;;12.20;99.90;;;;;;5052677;28;20244;-59
2023/10/29 04:44:07;;;;;;;1.80;1.23;;;12.20;99.90;;;;;;5052676;28;20267;-59
2023/10/29 04:46:35;;;;;;;6.60;1.10;;;12.30;99.90;;;;;;5052220;28;20713;-59
2023/10/29 04:49:03;;;;;;;6.28;0.90;;;12.20;99.90;;;;;;5052673;28;20275;-59
2023/10/29 04:51:31;;;;;;;3.60;1.05;;;12.30;99.90;;;;;;5052638;28;20241;-59
2023/10/29 04:53:59;;;;;;;4.38;1.00;;;12.30;99.90;;;;;;5051683;28;20285;-59
2023/10/29 04:56:27;;;;;;;8.38;1.30;;;12.30;99.90;;;;;;5052132;28;20236;-59
2023/10/29 04:58:57;;;;;;;4.40;1.48;;;12.30;99.90;;;;;;5052426;28;20268;-59
2023/10/29 05:01:25;;;;;;;3.63;1.10;;;12.30;99.90;;;;;;5052229;28;20237;-59
2023/10/29 05:03:53;;;;;;;1.85;1.08;;;12.30;99.90;;;;;;5052700;28;20297;-59
2023/10/29 05:06:21;;;;;;;4.22;1.20;;;12.20;99.90;;;;;;5052776;28;20275;-59
2023/10/29 05:08:49;;;;;;;6.13;1.40;;;12.20;99.90;;;;;;5051748;28;20739;-57
2023/10/29 05:11:17;;;;;;;4.15;1.27;;;12.10;99.90;;;;;;5051838;28;20229;-58
2023/10/29 05:13:45;;;;;;;3.35;1.27;;;12.10;99.90;;;;;;5052023;28;20624;-57
2023/10/29 05:16:14;;;;;;;3.60;1.60;;;12.10;99.90;;;;;;5050228;28;20222;-57
2023/10/29 05:18:42;;;;;;;1.50;1.10;;;12.10;99.90;;;;;;5051672;28;20198;-57
2023/10/29 05:21:10;;;;;;;2.85;1.23;;;12.10;99.90;;;;;;5051951;28;20234;-57
2023/10/29 05:23:39;;;;;;;5.50;1.40;;;12.00;99.90;;;;;;5051361;28;20213;-57
2023/10/29 05:26:06;;;;;;;4.05;1.60;;;12.00;99.90;;;;;;5051634;28;20233;-58
2023/10/29 05:28:34;;;;;;;2.72;1.50;;;12.00;99.90;;;;;;5051643;28;20210;-56
2023/10/29 05:31:02;;;;;;;2.08;1.25;;;12.00;99.90;;;;;;5051754;28;20202;-57
2023/10/29 05:33:32;;;;;;;2.05;1.70;;;11.90;99.90;;;;;;5051468;28;20198;-57
2023/10/29 05:36:00;;;;;;;3.78;1.25;;;11.90;99.90;;;;;;5050811;28;20578;-57
2023/10/29 05:38:28;;;;;;;3.78;1.55;;;11.90;99.90;;;;;;5051855;28;20234;-55
2023/10/29 05:40:56;;;;;;;2.72;1.40;;;11.90;99.90;;;;;;5050329;28;20251;-56
2023/10/29 05:43:24;;;;;;;1.42;1.33;;;11.90;99.90;;;;;;5051612;28;20227;-59
2023/10/29 05:45:52;;;;;;;1.80;1.63;;;11.90;99.90;;;;;;5050274;28;20232;-58
2023/10/29 05:48:20;;;;;;;2.08;1.33;;;11.90;99.90;;;;;;5045527;28;20572;-58
2023/10/29 05:50:49;;;;;;;2.45;1.52;;;11.90;99.90;;;;;;5051456;28;20256;-59
2023/10/29 05:53:17;;;;;;;1.90;1.70;;;11.90;99.90;;;;;;5051734;28;20575;-58
2023/10/29 05:55:45;;;;;;;3.72;1.50;;;11.90;99.90;;;;;;5051564;28;20230;-59
2023/10/29 05:58:13;;;;;;;3.47;1.52;;;11.90;99.90;;;;;;5051135;28;20270;-55
2023/10/29 06:00:41;;;;;;;3.03;1.70;;;11.90;99.90;;;;;;5051189;28;20237;-59
2023/10/29 06:03:09;;;;;;;4.75;1.55;;;11.80;99.90;;;;;;5050806;28;20214;-55
2023/10/29 06:05:37;;;;;;;3.60;1.73;;;11.90;99.90;;;;;;5050574;28;20747;-54
2023/10/29 06:08:06;;;;;;;5.47;1.67;;;11.80;99.90;;;;;;5050341;28;20728;-57
2023/10/29 06:10:34;;;;;;;2.42;1.52;;;11.80;99.90;;;;;;5051261;28;20226;-58
2023/10/29 06:13:02;;;;;;;3.90;1.58;;;11.80;99.90;;;;;;5050690;28;20245;-57
2023/10/29 06:15:30;;;;;;;7.50;1.65;;;11.80;99.90;;;;;;5048763;28;20230;-57
2023/10/29 06:17:58;;;;;;;5.07;1.40;;;11.80;99.90;;;;;;5050584;28;20257;-57
2023/10/29 06:20:27;;;;;;;2.10;1.23;;;11.90;99.90;;;;;;5051410;28;20568;-56
2023/10/29 06:22:55;;;;;;;6.93;1.83;;;11.90;99.90;;;;;;5051074;28;20194;-57
2023/10/29 06:25:24;;;;;;;6.68;1.42;;;11.90;99.90;;;;;;5050741;28;20645;-57
2023/10/29 06:27:52;;;;;;;6.03;1.40;;;11.90;99.90;;;;;;5058334;22;20277;-57
2023/10/29 06:30:20;;;;;;;3.17;1.40;;;11.80;99.90;;;;;;5042843;28;20284;-57
2023/10/29 06:32:50;;;;;;;2.30;1.42;;;11.80;99.90;;;;;;5051078;28;20198;-57
2023/10/29 06:35:19;;;;;;;1.38;1.23;;;11.80;99.90;;;;;;5050327;28;20667;-57
2023/10/29 06:37:47;;;;;;;2.88;1.52;;;11.80;99.90;;;;;;5042366;28;20253;-57
2023/10/29 06:40:15;;;;;;;4.55;1.88;;;11.80;99.90;;;;;;5030749;28;20256;-57
2023/10/29 06:42:45;;;;;;;10.07;2.47;;;11.80;99.90;;;;;;5030581;28;20638;-57
2023/10/29 06:45:14;;;;;;;3.28;1.50;;;11.80;99.90;;;;;;5030892;28;20306;-57
2023/10/29 06:47:41;;;;;;;11.77;1.85;;;11.80;99.90;;;;;;5030941;28;20226;-57
2023/10/29 06:50:10;;;;;;;2.40;1.52;;;11.90;99.90;;;;;;5031292;28;20210;-57
2023/10/29 06:52:38;;;;;;;1.40;1.40;;;11.90;99.90;;;;;;5031128;28;20230;-57
2023/10/29 06:55:08;;;;;;;3.05;1.80;;;11.90;99.90;;;;;;5031294;28;20313;-57
2023/10/29 06:57:36;;;;;;;2.53;1.88;;;11.90;99.90;;;;;;5030842;28;20229;-57
2023/10/29 07:00:08;;;;;;;3.13;1.80;;;11.90;99.90;;;;;;5031194;28;20294;-58
2023/10/29 07:02:36;;;;;;;3.70;1.50;;;12.00;99.90;;;;;;5028884;28;20211;-57
2023/10/29 07:05:06;;;;;;;3.05;1.60;;;12.00;99.90;;;;;;5030894;28;20207;-57
2023/10/29 07:07:34;;;;;;;7.72;1.52;;;12.00;99.90;;;;;;5028453;28;20234;-57
2023/10/29 07:10:03;;;;;;;7.63;1.60;;;12.10;99.90;;;;;;5030690;28;20256;-56
2023/10/29 07:12:32;;;;;;;3.63;1.45;;;12.10;99.90;;;;;;5029751;28;20221;-57
2023/10/29 07:15:00;;;;;;;6.88;1.60;;;12.10;99.90;;;;;;5030128;28;20289;-58
2023/10/29 07:17:29;;;;;;;3.05;1.40;;;12.20;99.90;;;;;;5022632;28;20602;-57
2023/10/29 07:19:57;;;;;;;4.93;1.27;;;12.20;99.90;;;;;;5033280;28;20901;-56
2023/10/29 07:22:25;;;;;;;1.60;1.50;;;12.30;99.90;;;;;;5033666;28;20211;-56
2023/10/29 07:24:53;;;;;;;8.48;4.30;;;12.30;99.90;;;;;;5034350;28;20285;-55
2023/10/29 07:27:21;;;;;;;6.75;2.92;;;12.30;99.90;;;;;;5033897;28;20309;-55
2023/10/29 07:29:49;;;;;;;2.95;1.58;;;12.30;99.90;;;;;;5028435;28;20253;-55
2023/10/29 07:32:17;;;;;;;3.17;1.75;;;12.30;99.90;;;;;;5027010;28;20580;-56
2023/10/29 07:34:46;;;;;;;3.50;2.45;;;12.30;99.90;;;;;;5033801;28;20289;-57
2023/10/29 07:37:14;;;;;;;4.55;1.85;;;12.30;99.90;;;;;;5033728;28;20226;-58
2023/10/29 07:39:42;;;;;;;1.95;1.73;;;12.30;99.90;;;;;;5034045;28;20261;-55
2023/10/29 07:42:10;;;;;;;2.55;1.98;;;12.40;99.90;;;;;;5033827;28;20280;-55
2023/10/29 07:44:38;;;;;;;6.68;6.03;;;12.40;99.90;;;;;;5033765;28;20719;-55
2023/10/29 07:47:08;;;;;;;11.40;7.78;;;12.40;99.90;;;;;;5033513;28;20226;-55
2023/10/29 07:49:37;;;;;;;2.65;2.33;;;12.40;99.90;;;;;;5033794;28;20206;-55
2023/10/29 07:52:06;;;;;;;2.00;1.80;;;12.50;99.90;;;;;;5033577;28;20211;-56
2023/10/29 07:54:34;;;;;;;5.07;2.20;;;12.50;99.90;;;;;;5033773;28;20268;-57
2023/10/29 07:57:02;;;;;;;2.75;1.30;;;12.50;99.90;;;;;;5033376;28;20257;-56
2023/10/29 07:59:30;;;;;;;3.30;1.00;;;12.60;99.90;;;;;;5032669;28;20210;-55
2023/10/29 08:01:58;;;;;;;2.78;1.40;;;12.60;99.90;;;;;;5032984;28;20313;-56
2023/10/29 08:04:27;;;;;;;4.20;1.50;;;12.70;99.90;;;;;;5031689;28;20289;-55
2023/10/29 08:06:55;;;;;;;1.70;1.00;;;12.80;99.90;;;;;;5031238;28;20214;-57
2023/10/29 08:09:24;;;;;;;2.58;1.35;;;12.80;99.90;;;;;;5032367;28;20302;-55
2023/10/29 08:11:52;;;;;;;1.60;1.40;;;12.80;99.90;;;;;;5033135;28;20297;-55
2023/10/29 08:14:20;;;;;;;5.68;1.67;;;12.80;99.90;;;;;;5033208;28;20664;-56
2023/10/29 08:16:48;;;;;;;2.63;1.17;;;12.90;99.90;;;;;;5031840;28;20203;-55
2023/10/29 08:19:16;;;;;;;3.45;1.17;;;12.90;99.90;;;;;;5051792;28;20244;-55
2023/10/29 08:21:44;;;;;;;3.75;1.42;;;12.90;99.90;;;;;;5045556;28;20265;-55
2023/10/29 08:24:12;;;;;;;4.07;1.15;;;12.90;99.90;;;;;;5035029;28;20302;-56
2023/10/29 08:26:41;;;;;;;2.17;1.13;;;13.00;99.90;;;;;;5032206;28;20211;-56
2023/10/29 08:29:09;;;;;;;6.35;1.63;;;13.00;99.90;;;;;;5031536;28;20238;-55
2023/10/29 08:31:37;;;;;;;5.30;3.97;;;13.10;99.90;;;;;;5031896;28;20650;-55
2023/10/29 08:34:05;;;;;;;1.30;1.20;;;13.10;99.90;;;;;;5026511;28;20208;-56
2023/10/29 08:36:33;;;;;;;5.88;1.75;;;13.10;99.90;;;;;;5029149;28;20226;-55
2023/10/29 08:39:02;;;;;;;3.15;1.75;;;13.20;99.90;;;;;;5032910;28;20222;-55
2023/10/29 08:41:30;;;;;;;5.80;1.48;;;13.20;99.90;;;;;;5024852;28;20199;-57
2023/10/29 08:44:00;;;;;;;2.15;1.45;;;13.20;99.90;;;;;;5029765;28;20238;-56
2023/10/29 08:46:27;;;;;;;6.07;2.00;;;13.30;99.90;;;;;;5031279;28;20872;-55
2023/10/29 08:48:55;;;;;;;2.80;1.40;;;13.30;99.90;;;;;;5032682;28;20336;-55
2023/10/29 08:51:23;;;;;;;3.17;1.40;;;13.40;99.90;;;;;;5031008;28;20222;-56
2023/10/29 08:53:51;;;;;;;2.38;1.20;;;13.40;99.90;;;;;;5031040;28;20731;-56
2023/10/29 08:56:19;;;;;;;2.15;1.40;;;13.40;99.90;;;;;;5026802;28;20682;-55
2023/10/29 08:58:47;;;;;;;2.75;1.08;;;13.50;99.90;;;;;;5026086;28;20315;-55
2023/10/29 09:01:17;;;;;;;3.10;1.15;;;13.50;99.90;;;;;;5030767;28;20213;-56
2023/10/29 09:03:45;;;;;;;1.38;1.25;;;13.50;99.90;;;;;;5030258;28;20848;-56
2023/10/29 09:06:14;;;;;;;2.95;1.27;;;13.60;99.90;;;;;;5029250;28;20202;-57
2023/10/29 09:08:42;;;;;;;3.03;1.33;;;13.60;99.90;;;;;;5027037;28;20713;-56
2023/10/29 09:11:14;;;;;;;1.92;1.05;;;13.60;99.90;;;;;;5030580;28;20304;-57
2023/10/29 09:13:41;;;;;;;3.55;1.20;;;13.70;99.90;;;;;;5028264;28;20203;-57
2023/10/29 09:16:09;;;;;;;2.47;1.13;;;13.80;99.90;;;;;;5028454;28;20289;-57
2023/10/29 09:18:39;;;;;;;4.72;1.10;;;13.80;99.90;;;;;;5027976;28;20218;-58
2023/10/29 09:21:07;;;;;;;4.00;1.05;;;13.80;99.90;;;;;;5028300;28;20245;-59
2023/10/29 09:23:35;;;;;;;2.15;1.20;;;13.80;99.90;;;;;;5020016;28;20227;-55
2023/10/29 09:26:03;;;;;;;3.05;1.20;;;13.80;99.90;;;;;;5027008;28;20211;-55
2023/10/29 09:28:32;;;;;;;5.13;1.00;;;13.80;99.90;;;;;;5025392;28;20750;-58
2023/10/29 09:30:59;;;;;;;1.80;0.98;;;13.80;99.90;;;;;;5029985;28;20235;-57
2023/10/29 09:33:28;;;;;;;2.10;1.38;;;13.80;99.90;;;;;;5026652;28;20309;-55
2023/10/29 09:36:00;;;;;;;1.60;0.98;;;13.80;99.90;;;;;;5030032;28;20309;-56
2023/10/29 09:38:28;;;;;;;2.17;1.13;;;13.80;99.90;;;;;;5024084;28;20284;-58
2023/10/29 09:40:56;;;;;;;6.03;1.63;;;13.80;99.90;;;;;;5025975;28;20290;-57
2023/10/29 09:43:24;;;;;;;3.03;1.02;;;14.10;99.90;;;;;;5029239;28;20206;-57
2023/10/29 09:45:52;;;;;;;2.53;1.17;;;14.40;99.90;;;;;;5029413;28;20672;-56
2023/10/29 09:48:20;;;;;;;1.50;0.93;;;14.40;99.90;;;;;;5025864;28;20230;-57
2023/10/29 09:50:48;;;;;;;5.68;1.02;;;14.30;99.90;;;;;;5030123;28;20206;-56
2023/10/29 09:53:18;;;;;;;3.53;1.20;;;14.20;99.90;;;;;;5029634;28;20309;-57
2023/10/29 09:55:46;;;;;;;2.22;1.73;;;14.10;99.90;;;;;;5028894;28;20211;-58
2023/10/29 09:58:13;;;;;;;1.58;0.98;;;14.00;99.90;;;;;;5029663;28;20258;-58
2023/10/29 10:00:42;;;;;;;2.08;1.60;;;14.00;99.90;;;;;;5029910;28;20347;-57
2023/10/29 10:03:09;;;;;;;2.47;1.30;;;14.00;99.90;;;;;;5029907;28;20242;-58
2023/10/29 10:05:37;;;;;;;2.60;1.50;;;13.90;99.90;;;;;;5029586;28;20306;-58
2023/10/29 10:08:05;;;;;;;2.03;1.60;;;13.90;99.90;;;;;;5029655;28;20262;-57
2023/10/29 10:10:39;;;;;;;1.27;0.70;;;13.90;99.90;;;;;;5022122;28;20245;-57
2023/10/29 10:13:07;;;;;;;3.83;1.40;;;14.00;99.90;;;;;;5029473;28;20592;-59
2023/10/29 10:15:35;;;;;;;2.13;1.48;;;14.00;99.90;;;;;;5029477;28;20272;-58
2023/10/29 10:18:04;;;;;;;1.83;1.33;;;14.00;99.90;;;;;;5029471;28;20250;-56
2023/10/29 10:20:33;;;;;;;2.92;1.15;;;14.10;99.90;;;;;;5029412;28;20202;-56
2023/10/29 10:23:01;;;;;;;6.03;1.63;;;14.10;99.90;;;;;;5029496;28;20238;-56
2023/10/29 10:25:30;;;;;;;4.25;1.15;;;14.20;99.90;;;;;;5029502;28;20233;-56
2023/10/29 10:28:00;;;;;;;2.45;1.05;;;14.20;99.90;;;;;;5029124;28;20318;-56
2023/10/29 10:30:29;;;;;;;3.78;1.05;;;14.20;99.90;;;;;;5029724;28;20813;-55
2023/10/29 10:33:09;;;;;;;1.27;1.15;;;14.20;99.90;;;;;;5029578;28;20234;-56
2023/10/29 10:35:41;;;;;;;2.22;0.93;;;14.10;99.90;;;;;;5029452;28;20644;-56
2023/10/29 10:38:09;;;;;;;1.70;1.10;;;14.10;99.90;;;;;;5029055;28;20727;-56
2023/10/29 10:40:37;;;;;;;2.22;1.02;;;14.00;99.90;;;;;;5028910;28;20234;-58
2023/10/29 10:43:07;;;;;;;3.15;1.15;;;14.00;99.90;;;;;;5029305;28;20222;-57
2023/10/29 10:45:35;;;;;;;1.73;1.00;;;14.00;99.90;;;;;;5029276;28;20202;-59
2023/10/29 10:48:05;;;;;;;4.82;0.95;;;14.00;99.90;;;;;;5029094;28;20266;-56
2023/10/29 10:50:34;;;;;;;1.77;1.00;;;14.00;99.90;;;;;;5029346;28;20210;-57
2023/10/29 10:53:03;;;;;;;3.10;1.08;;;14.00;99.90;;;;;;5032150;28;20288;-56
2023/10/29 10:55:30;;;;;;;2.58;1.05;;;13.90;99.90;;;;;;5033374;28;20260;-56
2023/10/29 10:58:19;;;;;;;7.60;1.45;;;13.90;99.90;;;;;;5032820;28;20742;-57
2023/10/29 11:00:47;;;;;;;1.58;1.00;;;13.90;99.90;;;;;;5032705;28;20289;-58
2023/10/29 11:03:15;;;;;;;1.05;1.02;;;13.90;99.90;;;;;;5032392;28;20297;-57
2023/10/29 11:05:59;;;;;;;4.72;1.00;;;13.80;99.90;;;;;;5033132;28;20213;-57
2023/10/29 11:08:27;;;;;;;6.55;1.27;;;13.80;99.90;;;;;;5032783;28;20248;-57
2023/10/29 11:10:57;;;;;;;5.35;1.02;;;13.80;99.90;;;;;;5033072;28;20624;-58
2023/10/29 11:13:26;;;;;;;1.15;1.02;;;13.80;99.90;;;;;;5032804;28;20866;-57
2023/10/29 11:15:55;;;;;;;1.30;1.05;;;13.80;99.90;;;;;;5032673;28;20234;-57
2023/10/29 11:18:29;;;;;;;2.25;1.15;;;13.80;99.90;;;;;;5032855;28;20226;-58
2023/10/29 11:20:59;;;;;;;5.05;1.27;;;13.80;99.90;;;;;;5032939;28;20234;-56
2023/10/29 11:23:28;;;;;;;2.90;1.20;;;13.80;99.90;;;;;;5032727;28;20268;-57
2023/10/29 11:26:18;;;;;;;2.58;2.47;;;13.80;99.90;;;;;;5032381;28;20387;-58
2023/10/29 11:28:47;;;;;;;1.27;1.17;;;13.70;99.90;;;;;;5032421;28;20709;-57
2023/10/29 11:31:15;;;;;;;2.80;1.85;;;13.80;99.90;;;;;;5032675;28;20230;-56
2023/10/29 11:33:44;;;;;;;2.13;1.17;;;13.70;99.90;;;;;;5032473;28;20294;-57
2023/10/29 11:36:32;;;;;;;1.40;1.30;;;13.70;99.90;;;;;;5032337;28;20250;-56
2023/10/29 11:39:34;;;;;;;2.22;1.48;;;13.70;99.90;;;;;;5032335;28;20222;-57
2023/10/29 11:42:08;;;;;;;4.72;1.45;;;13.60;99.90;;;;;;5032426;28;20292;-60
2023/10/29 11:44:37;;;;;;;1.52;0.90;;;13.60;99.90;;;;;;5032269;28;20205;-55
2023/10/29 11:47:06;;;;;;;3.72;0.90;;;13.60;99.90;;;;;;5031968;28;20256;-56
2023/10/29 11:50:08;;;;;;;1.33;1.10;;;13.60;99.90;;;;;;5032353;28;20647;-57
2023/10/29 11:52:43;;;;;;;4.35;1.10;;;13.70;99.90;;;;;;5029819;28;20236;-56
2023/10/29 11:55:12;;;;;;;1.25;0.90;;;13.60;99.90;;;;;;5031823;28;20210;-57
2023/10/29 11:57:45;;;;;;;2.53;1.42;;;13.60;99.90;;;;;;5032222;28;20227;-59
2023/10/29 12:00:15;;;;;;;1.05;1.05;;;13.60;99.90;;;;;;5032407;28;20727;-58
2023/10/29 12:02:46;;;;;;;2.35;0.80;;;13.60;99.90;;;;;;5031774;28;20228;-56
2023/10/29 12:05:15;;;;;;;1.73;1.23;;;13.60;99.90;;;;;;5032142;28;20264;-59
2023/10/29 12:07:43;;;;;;;2.80;1.33;;;13.60;99.90;;;;;;5031625;28;20742;-58
2023/10/29 12:10:11;;;;;;;2.20;1.17;;;13.60;99.90;;;;;;5032033;28;20257;-57
2023/10/29 12:12:39;;;;;;;1.17;0.88;;;13.70;99.90;;;;;;5025441;28;20707;-58
2023/10/29 12:15:16;;;;;;;0.98;0.90;;;13.70;99.90;;;;;;5029263;28;20264;-57
2023/10/29 12:17:45;;;;;;;1.58;1.08;;;13.60;99.90;;;;;;5031808;28;20280;-57
2023/10/29 12:20:21;;;;;;;1.15;1.10;;;13.70;99.90;;;;;;5031719;28;20288;-59
2023/10/29 12:22:53;;;;;;;1.63;1.13;;;13.60;99.90;;;;;;5032673;28;20272;-56
2023/10/29 12:25:21;;;;;;;4.35;1.30;;;13.60;99.90;;;;;;5033153;28;20321;-57
2023/10/29 12:27:50;;;;;;;3.45;1.70;;;13.60;99.90;;;;;;5042741;22;20264;-59
2023/10/29 12:30:40;;;;;;;1.50;1.20;;;13.60;99.90;;;;;;5052924;28;20221;-59
2023/10/29 12:33:18;;;;;;;2.13;1.40;;;13.60;99.90;;;;;;5052843;28;20297;-58
2023/10/29 12:35:47;;;;;;;1.58;1.48;;;13.50;99.90;;;;;;5052754;28;20297;-58
2023/10/29 12:38:15;;;;;;;3.80;2.20;;;13.50;99.90;;;;;;5052775;28;20225;-57
2023/10/29 12:41:08;;;;;;;3.90;2.15;;;13.50;99.90;;;;;;5052906;28;20229;-58
2023/10/29 12:43:36;;;;;;;3.58;2.15;;;13.50;99.90;;;;;;5047314;28;20702;-57
2023/10/29 12:46:06;;;;;;;1.42;1.33;;;13.50;99.90;;;;;;5053028;28;20304;-58
2023/10/29 12:48:35;;;;;;;2.13;1.52;;;13.50;99.90;;;;;;5052916;28;20225;-57
2023/10/29 12:51:03;;;;;;;3.65;1.40;;;13.50;99.90;;;;;;5052727;28;20230;-57
2023/10/29 12:53:31;;;;;;;1.75;1.50;;;13.50;99.90;;;;;;5052584;28;20214;-57
2023/10/29 12:56:00;;;;;;;4.90;1.90;;;13.50;99.90;;;;;;5052518;28;20735;-58